Varzelandia, Brazil
Current Conditions -  °F | °C
As of 4:00 PM on Thursday 27 Nov 2014 (Local Time) from SBMK Reporting Station
Few Clouds Few Clouds  
Wind Chill: 90°   Ceiling: Unl
Heat Index: 90°   Visibility: 6mi
Dew Point: 63°   Wind: 8mph
Humidity: 40%   Direction: 40°NE
Pressure: 29.88"   Gusts: NA
Location:  15.7°S, 44.03°W
Report Text: SBMK 271800Z 04007KT 350V090 9999 FEW045 FEW050TCU 32/17 Q1012
Loading
Personal Weather Stations






























Interactive Weather Map New forecast layout! Learn more

10-Day Weather Forecast

Advertisements
Track Severe Weather on mobile